sensor_id;sensor_type;location;lat;lon;timestamp;temperature;humidity
49321;DHT22;35817;44.498;0.166;2022-08-11T02:45:27;20.30;89.30
49321;DHT22;35817;44.498;0.166;2022-08-11T03:48:09;19.90;91.90
49321;DHT22;35817;44.498;0.166;2022-08-11T03:50:46;19.80;92.00
49321;DHT22;35817;44.498;0.166;2022-08-11T06:14:23;20.70;83.30
49321;DHT22;35817;44.498;0.166;2022-08-11T06:16:51;20.80;83.30
49321;DHT22;35817;44.498;0.166;2022-08-11T06:19:19;20.90;83.40
49321;DHT22;35817;44.498;0.166;2022-08-11T06:21:47;20.90;83.50
49321;DHT22;35817;44.498;0.166;2022-08-11T06:24:24;21.00;83.60
49321;DHT22;35817;44.498;0.166;2022-08-11T06:26:55;21.10;83.60
49321;DHT22;35817;44.498;0.166;2022-08-11T06:29:21;21.10;83.50
49321;DHT22;35817;44.498;0.166;2022-08-11T06:31:59;21.20;83.30
49321;DHT22;35817;44.498;0.166;2022-08-11T06:37:15;21.50;82.90
49321;DHT22;35817;44.498;0.166;2022-08-11T06:42:26;21.60;82.20
49321;DHT22;35817;44.498;0.166;2022-08-11T06:45:04;21.70;82.30
49321;DHT22;35817;44.498;0.166;2022-08-11T06:47:41;21.70;82.20
49321;DHT22;35817;44.498;0.166;2022-08-11T06:50:18;21.80;82.40
49321;DHT22;35817;44.498;0.166;2022-08-11T06:53:04;22.00;82.50
49321;DHT22;35817;44.498;0.166;2022-08-11T06:55:30;22.20;82.70
49321;DHT22;35817;44.498;0.166;2022-08-11T06:58:20;22.20;82.70
49321;DHT22;35817;44.498;0.166;2022-08-11T07:01:11;22.40;82.60
49321;DHT22;35817;44.498;0.166;2022-08-11T11:45:26;48.00;41.70
49321;DHT22;35817;44.498;0.166;2022-08-11T11:48:14;47.80;42.80
49321;DHT22;35817;44.498;0.166;2022-08-11T11:51:10;47.80;40.30
49321;DHT22;35817;44.498;0.166;2022-08-11T11:54:03;47.80;41.40
49321;DHT22;35817;44.498;0.166;2022-08-11T11:57:39;48.10;40.10
49321;DHT22;35817;44.498;0.166;2022-08-11T12:00:23;48.40;41.70
49321;DHT22;35817;44.498;0.166;2022-08-11T12:03:09;48.60;39.40
49321;DHT22;35817;44.498;0.166;2022-08-11T12:05:36;48.60;42.30
49321;DHT22;35817;44.498;0.166;2022-08-11T12:08:04;48.80;42.20
49321;DHT22;35817;44.498;0.166;2022-08-11T12:10:51;49.00;40.10
49321;DHT22;35817;44.498;0.166;2022-08-11T13:20:22;50.30;41.00
49321;DHT22;35817;44.498;0.166;2022-08-11T13:22:51;51.10;39.90
49321;DHT22;35817;44.498;0.166;2022-08-11T13:25:21;51.50;37.90
49321;DHT22;35817;44.498;0.166;2022-08-11T13:27:48;51.60;37.70
49321;DHT22;35817;44.498;0.166;2022-08-11T13:30:18;51.80;37.60
49321;DHT22;35817;44.498;0.166;2022-08-11T13:33:04;52.10;37.20
49321;DHT22;35817;44.498;0.166;2022-08-11T13:35:32;52.30;39.00
49321;DHT22;35817;44.498;0.166;2022-08-11T13:44:08;53.10;36.60
49321;DHT22;35817;44.498;0.166;2022-08-11T13:46:47;53.20;35.60
49321;DHT22;35817;44.498;0.166;2022-08-11T13:49:15;53.40;36.60
49321;DHT22;35817;44.498;0.166;2022-08-11T13:51:48;53.30;36.40
49321;DHT22;35817;44.498;0.166;2022-08-11T13:54:34;53.10;35.70
49321;DHT22;35817;44.498;0.166;2022-08-11T13:57:06;53.00;35.00
49321;DHT22;35817;44.498;0.166;2022-08-11T14:00:04;53.20;36.30
49321;DHT22;35817;44.498;0.166;2022-08-11T14:02:48;53.70;35.60
49321;DHT22;35817;44.498;0.166;2022-08-11T14:08:06;53.80;36.10
49321;DHT22;35817;44.498;0.166;2022-08-11T14:11:00;54.20;36.10
49321;DHT22;35817;44.498;0.166;2022-08-11T14:13:46;54.10;36.60
49321;DHT22;35817;44.498;0.166;2022-08-11T14:19:25;54.10;35.70
49321;DHT22;35817;44.498;0.166;2022-08-11T14:26:00;55.30;35.30
49321;DHT22;35817;44.498;0.166;2022-08-11T14:32:33;56.00;34.90
49321;DHT22;35817;44.498;0.166;2022-08-11T15:49:54;50.40;36.20
49321;DHT22;35817;44.498;0.166;2022-08-11T15:52:26;50.80;37.70
49321;DHT22;35817;44.498;0.166;2022-08-11T15:55:04;51.50;37.50
49321;DHT22;35817;44.498;0.166;2022-08-11T15:57:52;52.10;35.00
49321;DHT22;35817;44.498;0.166;2022-08-11T16:01:13;52.20;33.80
49321;DHT22;35817;44.498;0.166;2022-08-11T16:04:05;52.50;34.80
49321;DHT22;35817;44.498;0.166;2022-08-11T16:07:11;52.70;35.90
49321;DHT22;35817;44.498;0.166;2022-08-11T16:17:20;52.20;35.70
49321;DHT22;35817;44.498;0.166;2022-08-11T16:19:52;52.40;37.10
49321;DHT22;35817;44.498;0.166;2022-08-11T16:22:26;52.50;34.90
49321;DHT22;35817;44.498;0.166;2022-08-11T16:25:00;52.40;36.50
49321;DHT22;35817;44.498;0.166;2022-08-11T16:27:28;52.30;33.90
49321;DHT22;35817;44.498;0.166;2022-08-11T16:29:59;52.10;34.50
49321;DHT22;35817;44.498;0.166;2022-08-11T16:35:53;51.30;34.80
49321;DHT22;35817;44.498;0.166;2022-08-11T16:38:39;51.20;35.50
49321;DHT22;35817;44.498;0.166;2022-08-11T16:41:12;51.10;35.60
49321;DHT22;35817;44.498;0.166;2022-08-11T16:43:46;51.00;35.10
49321;DHT22;35817;44.498;0.166;2022-08-11T17:01:25;50.30;35.50
49321;DHT22;35817;44.498;0.166;2022-08-11T17:04:02;50.30;36.30
49321;DHT22;35817;44.498;0.166;2022-08-11T19:39:45;33.30;52.30
49321;DHT22;35817;44.498;0.166;2022-08-11T19:42:33;33.10;52.90
49321;DHT22;35817;44.498;0.166;2022-08-11T19:45:20;32.90;52.10
49321;DHT22;35817;44.498;0.166;2022-08-11T19:48:05;32.60;51.70
49321;DHT22;35817;44.498;0.166;2022-08-11T19:50:50;32.40;52.20
49321;DHT22;35817;44.498;0.166;2022-08-11T19:53:36;32.10;52.90
49321;DHT22;35817;44.498;0.166;2022-08-11T19:56:21;31.80;53.80
49321;DHT22;35817;44.498;0.166;2022-08-11T19:59:06;31.60;55.10
49321;DHT22;35817;44.498;0.166;2022-08-11T20:01:51;31.40;55.80
49321;DHT22;35817;44.498;0.166;2022-08-11T20:04:35;31.20;55.90
49321;DHT22;35817;44.498;0.166;2022-08-11T20:07:19;31.00;56.20
49321;DHT22;35817;44.498;0.166;2022-08-11T20:10:10;30.90;56.50
49321;DHT22;35817;44.498;0.166;2022-08-11T22:41:15;27.00;73.00
49321;DHT22;35817;44.498;0.166;2022-08-11T22:47:07;26.80;73.80
49321;DHT22;35817;44.498;0.166;2022-08-11T22:49:56;26.70;74.10
49321;DHT22;35817;44.498;0.166;2022-08-11T22:52:47;26.60;74.10
49321;DHT22;35817;44.498;0.166;2022-08-11T22:55:41;26.60;74.60
49321;DHT22;35817;44.498;0.166;2022-08-11T22:58:34;26.50;74.40
49321;DHT22;35817;44.498;0.166;2022-08-11T23:04:37;26.40;74.50
49321;DHT22;35817;44.498;0.166;2022-08-11T23:07:43;26.30;74.30
49321;DHT22;35817;44.498;0.166;2022-08-11T23:10:29;26.30;74.50
49321;DHT22;35817;44.498;0.166;2022-08-11T23:13:13;26.30;74.60
49321;DHT22;35817;44.498;0.166;2022-08-11T23:16:03;26.30;74.50
49321;DHT22;35817;44.498;0.166;2022-08-11T23:19:16;26.40;74.30
49321;DHT22;35817;44.498;0.166;2022-08-11T23:22:17;26.50;73.70
49321;DHT22;35817;44.498;0.166;2022-08-11T23:25:23;26.60;73.50
49321;DHT22;35817;44.498;0.166;2022-08-11T23:28:26;26.70;72.90
49321;DHT22;35817;44.498;0.166;2022-08-11T23:31:11;26.80;72.70
49321;DHT22;35817;44.498;0.166;2022-08-11T23:33:57;26.90;71.90
49321;DHT22;35817;44.498;0.166;2022-08-11T23:36:42;26.90;71.60
49321;DHT22;35817;44.498;0.166;2022-08-11T23:53:24;26.90;69.20
49321;DHT22;35817;44.498;0.166;2022-08-11T23:56:23;27.00;68.90
49321;DHT22;35817;44.498;0.166;2022-08-11T23:59:25;27.00;71.30
